createdAt,value
2022-09-04T00:00:12.508Z,101617.16
2022-09-04T00:03:15.645Z,101617.47
2022-09-04T00:05:50.417Z,101611.75
2022-09-04T00:08:41.365Z,101609.19
2022-09-04T00:11:23.911Z,101604.06
2022-09-04T00:14:01.124Z,101610.72
2022-09-04T00:16:43.029Z,101607.47
2022-09-04T00:19:25.674Z,101607.94
2022-09-04T00:21:59.455Z,101613.31
2022-09-04T00:24:35.038Z,101609.47
2022-09-04T00:27:13.270Z,101617.97
2022-09-04T00:29:51.783Z,101621.72
2022-09-04T00:32:26.782Z,101625.09
2022-09-04T00:35:13.290Z,101623.94
2022-09-04T00:37:48.568Z,101627.22
2022-09-04T00:40:26.702Z,101633.41
2022-09-04T00:43:43.367Z,101626.06
2022-09-04T00:46:49.561Z,101630.03
2022-09-04T00:49:58.821Z,101630.47
2022-09-04T00:52:58.416Z,101627.78
2022-09-04T00:55:59.814Z,101637.38
2022-09-04T00:59:03.406Z,101638.06
2022-09-04T01:01:31.486Z,101634.44
2022-09-04T01:04:31.768Z,101639.47
2022-09-04T01:07:24.136Z,101646.97
2022-09-04T01:10:38.339Z,101647.03
2022-09-04T01:13:16.767Z,101652.41
2022-09-04T01:15:50.820Z,101645.19
2022-09-04T01:18:30.889Z,101651.63
2022-09-04T01:21:30.943Z,101653.13
2022-09-04T01:24:49.507Z,101651.38
2022-09-04T01:27:27.600Z,101657.56
2022-09-04T01:30:06.360Z,101658.81
2022-09-04T01:32:48.971Z,101659.25
2022-09-04T01:35:30.774Z,101654.34
2022-09-04T01:38:12.614Z,101648.63
2022-09-04T01:40:48.442Z,101646.75
2022-09-04T01:43:22.837Z,101642.44
2022-09-04T01:46:22.360Z,101647.09
2022-09-04T01:48:59.050Z,101645.00
2022-09-04T01:51:40.260Z,101650.81
2022-09-04T01:54:42.310Z,101648.00
2022-09-04T01:57:27.642Z,101655.47
2022-09-04T02:00:08.463Z,101672.25
2022-09-04T02:02:55.538Z,101667.56
2022-09-04T02:05:36.451Z,101662.44
2022-09-04T02:08:25.094Z,101666.03
2022-09-04T02:11:06.454Z,101673.72
2022-09-04T02:13:51.438Z,101669.63
2022-09-04T02:16:35.179Z,101675.69
2022-09-04T02:19:16.684Z,101675.69
2022-09-04T02:21:56.066Z,101681.50
2022-09-04T02:24:34.354Z,101676.13
2022-09-04T02:27:11.788Z,101675.91
2022-09-04T02:29:48.636Z,101681.06
2022-09-04T02:32:31.034Z,101678.56
2022-09-04T02:35:06.841Z,101671.59
2022-09-04T02:37:46.056Z,101667.50
2022-09-04T02:40:27.700Z,101680.31
2022-09-04T02:43:21.456Z,101676.91
2022-09-04T02:46:02.878Z,101677.94
2022-09-04T02:48:45.054Z,101677.94
2022-09-04T02:51:38.759Z,101673.50
2022-09-04T02:54:19.221Z,101681.06
2022-09-04T02:57:07.861Z,101680.47
2022-09-04T02:59:51.237Z,101680.47
2022-09-04T03:02:28.396Z,101689.78
2022-09-04T03:05:07.354Z,101680.53
2022-09-04T03:07:40.055Z,101683.44
2022-09-04T03:10:15.290Z,101676.88
2022-09-04T03:12:51.193Z,101689.34
2022-09-04T03:15:29.449Z,101688.94
2022-09-04T03:18:04.824Z,101689.41
2022-09-04T03:20:43.083Z,101685.53
2022-09-04T03:23:19.655Z,101689.25
2022-09-04T03:26:20.527Z,101694.31
2022-09-04T03:29:06.307Z,101685.22
2022-09-04T03:31:48.378Z,101686.28
2022-09-04T03:34:38.230Z,101682.19
2022-09-04T03:37:41.297Z,101681.81
2022-09-04T03:40:24.882Z,101682.19
2022-09-04T03:43:20.867Z,101685.91
2022-09-04T03:46:01.372Z,101693.34
2022-09-04T03:48:51.972Z,101694.59
2022-09-04T03:51:34.285Z,101699.97
2022-09-04T03:54:17.814Z,101696.69
2022-09-04T03:57:23.615Z,101705.00
2022-09-04T04:00:10.736Z,101707.91
2022-09-04T04:03:10.600Z,101710.00
2022-09-04T04:05:53.417Z,101707.47
2022-09-04T04:09:21.842Z,101712.09
2022-09-04T04:12:27.521Z,101718.31
2022-09-04T04:15:27.845Z,101721.22
2022-09-04T04:18:21.775Z,101724.31
2022-09-04T04:21:08.606Z,101729.44
2022-09-04T04:24:15.494Z,101728.25
2022-09-04T04:27:11.074Z,101726.16
2022-09-04T04:30:04.373Z,101734.00
2022-09-04T04:33:21.750Z,101732.19
2022-09-04T04:36:02.802Z,101726.00
2022-09-04T04:38:56.934Z,101730.38
2022-09-04T04:42:05.922Z,101731.22
2022-09-04T04:45:38.022Z,101732.94
2022-09-04T04:48:51.250Z,101742.81
2022-09-04T04:51:39.733Z,101753.09
2022-09-04T04:54:37.281Z,101754.72
2022-09-04T04:57:20.504Z,101758.00
2022-09-04T05:00:07.069Z,101756.38
2022-09-04T05:02:50.983Z,101760.06
2022-09-04T05:05:48.133Z,101757.22
2022-09-04T05:08:31.630Z,101757.81
2022-09-04T05:11:07.859Z,101759.72
2022-09-04T05:13:52.768Z,101760.50
2022-09-04T05:16:34.929Z,101760.91
2022-09-04T05:19:15.654Z,101767.84
2022-09-04T05:21:53.873Z,101774.44
2022-09-04T05:24:32.955Z,101780.38
2022-09-04T05:27:13.206Z,101784.72
2022-09-04T05:29:51.702Z,101788.81
2022-09-04T05:32:29.043Z,101794.19
2022-09-04T05:35:16.339Z,101796.84
2022-09-04T05:37:57.903Z,101796.19
2022-09-04T05:40:35.821Z,101799.03
2022-09-04T05:43:27.821Z,101799.03
2022-09-04T05:46:12.190Z,101802.31
2022-09-04T05:48:58.974Z,101810.13
2022-09-04T05:52:07.254Z,101814.06
2022-09-04T05:55:24.318Z,101811.78
2022-09-04T05:58:36.992Z,101814.22
2022-09-04T06:01:25.456Z,101809.63
2022-09-04T06:04:33.798Z,101810.53
2022-09-04T06:07:17.251Z,101810.47
2022-09-04T06:10:00.174Z,101804.69
2022-09-04T06:13:03.338Z,101806.69
2022-09-04T06:16:04.064Z,101808.72
2022-09-04T06:18:56.988Z,101813.41
2022-09-04T06:22:11.287Z,101816.91
2022-09-04T06:25:33.530Z,101821.03
2022-09-04T06:28:51.811Z,101824.66
2022-09-04T06:32:09.535Z,101820.53
2022-09-04T06:35:26.669Z,101814.25
2022-09-04T06:38:17.784Z,101827.16
2022-09-04T06:41:05.962Z,101823.16
2022-09-04T06:43:42.525Z,101829.44
2022-09-04T06:46:23.600Z,101831.41
2022-09-04T06:49:04.610Z,101837.63
2022-09-04T06:51:53.527Z,101834.66
2022-09-04T06:54:46.217Z,101842.41
2022-09-04T06:57:38.475Z,101851.34
2022-09-04T07:00:09.769Z,101852.84
2022-09-04T07:03:18.905Z,101857.28
2022-09-04T07:05:59.071Z,101857.34
2022-09-04T07:08:49.500Z,101863.66
2022-09-04T07:11:41.141Z,101853.19
2022-09-04T07:14:49.567Z,101869.56
2022-09-04T07:17:27.751Z,101867.50
2022-09-04T07:20:20.071Z,101862.41
2022-09-04T07:23:04.657Z,101862.06
2022-09-04T07:25:44.903Z,101865.06
2022-09-04T07:28:33.183Z,101872.50
2022-09-04T07:31:08.343Z,101865.06
2022-09-04T07:33:47.014Z,101870.72
2022-09-04T07:36:21.066Z,101869.72
2022-09-04T07:39:00.164Z,101866.50
2022-09-04T07:41:40.724Z,101880.72
2022-09-04T07:44:23.440Z,101876.97
2022-09-04T07:47:02.615Z,101881.63
2022-09-04T07:49:37.847Z,101878.34
2022-09-04T07:52:21.481Z,101881.38
2022-09-04T07:55:17.914Z,101882.06
2022-09-04T07:58:28.363Z,101877.22
2022-09-04T08:01:24.079Z,101881.63
2022-09-04T08:04:21.323Z,101883.09
2022-09-04T08:06:56.862Z,101881.69
2022-09-04T08:09:53.923Z,101883.59
2022-09-04T08:13:02.900Z,101889.56
2022-09-04T08:15:46.407Z,101884.66
2022-09-04T08:18:54.245Z,101892.06
2022-09-04T08:21:29.778Z,101894.91
2022-09-04T08:24:22.858Z,101888.31
2022-09-04T08:27:09.556Z,101896.38
2022-09-04T08:30:05.235Z,101901.19
2022-09-04T08:33:32.374Z,101898.31
2022-09-04T08:36:07.874Z,101904.59
2022-09-04T08:38:55.531Z,101904.41
2022-09-04T08:42:10.510Z,101899.56
2022-09-04T08:45:32.389Z,101898.31
2022-09-04T08:49:24.117Z,101894.44
2022-09-04T08:52:41.035Z,101899.97
2022-09-04T08:55:49.838Z,101908.19
2022-09-04T08:58:49.419Z,101907.47
2022-09-04T09:02:09.919Z,101911.41
2022-09-04T09:05:36.435Z,101908.88
2022-09-04T09:08:35.736Z,101909.63
2022-09-04T09:11:57.374Z,101908.97
2022-09-04T09:15:26.844Z,101904.38
2022-09-04T09:18:09.081Z,101902.28
2022-09-04T09:20:54.405Z,101908.44
2022-09-04T09:23:38.889Z,101907.09
2022-09-04T09:26:33.926Z,101905.84
2022-09-04T09:29:47.237Z,101906.22
2022-09-04T09:32:56.637Z,101900.31
2022-09-04T09:36:20.539Z,101901.16
2022-09-04T09:39:29.615Z,101898.97
2022-09-04T09:42:30.941Z,101898.81
2022-09-04T09:45:51.265Z,101891.88
2022-09-04T09:49:03.148Z,101905.22
2022-09-04T09:52:17.309Z,101897.03
2022-09-04T09:55:39.770Z,101900.13
2022-09-04T09:58:50.980Z,101891.09
2022-09-04T10:01:43.069Z,101896.59
2022-09-04T10:04:49.210Z,101894.50
2022-09-04T10:08:10.636Z,101891.56
2022-09-04T10:11:18.430Z,101895.50
2022-09-04T10:14:25.050Z,101891.94
2022-09-04T10:17:38.788Z,101889.53
2022-09-04T10:20:59.959Z,101892.16
2022-09-04T10:24:05.955Z,101891.44
2022-09-04T10:27:31.447Z,101889.66
2022-09-04T10:30:07.999Z,101893.63
2022-09-04T10:33:26.848Z,101894.81
2022-09-04T10:36:21.654Z,101901.16
2022-09-04T10:39:48.194Z,101887.69
2022-09-04T10:42:40.154Z,101889.31
2022-09-04T10:45:19.887Z,101897.63
2022-09-04T10:48:39.182Z,101890.56
2022-09-04T10:51:49.670Z,101889.81
2022-09-04T10:54:50.844Z,101885.72
2022-09-04T10:57:48.963Z,101893.34
2022-09-04T11:00:20.454Z,101885.97
2022-09-04T11:03:36.127Z,101892.09
2022-09-04T11:07:01.239Z,101886.53
2022-09-04T11:10:34.274Z,101878.72
2022-09-04T11:14:06.299Z,101877.19
2022-09-04T11:17:17.625Z,101885.59
2022-09-04T11:20:47.114Z,101875.09
2022-09-04T11:24:08.450Z,101868.44
2022-09-04T11:27:38.922Z,101870.53
2022-09-04T11:30:17.755Z,101871.06
2022-09-04T11:33:36.545Z,101873.09
2022-09-04T11:36:42.130Z,101870.16
2022-09-04T11:40:05.275Z,101870.38
2022-09-04T11:42:51.954Z,101866.00
2022-09-04T11:45:59.729Z,101872.13
2022-09-04T11:49:26.661Z,101871.75
2022-09-04T11:52:37.804Z,101870.38
2022-09-04T11:55:37.463Z,101865.47
2022-09-04T11:58:57.893Z,101857.06
2022-09-04T12:01:54.356Z,101856.38
2022-09-04T12:04:54.777Z,101847.78
2022-09-04T12:07:43.946Z,101846.06
2022-09-04T12:10:43.172Z,101841.38
2022-09-04T12:13:37.802Z,101839.19
2022-09-04T12:16:50.210Z,101848.13
2022-09-04T12:20:24.113Z,101853.00
2022-09-04T12:23:43.273Z,101853.38
2022-09-04T12:27:05.533Z,101849.75
2022-09-04T12:30:05.429Z,101853.47
2022-09-04T12:33:14.427Z,101860.97
2022-09-04T12:36:48.167Z,101843.78
2022-09-04T12:40:11.388Z,101851.97
2022-09-04T12:42:57.307Z,101845.94
2022-09-04T12:45:37.950Z,101850.59
2022-09-04T12:48:20.159Z,101847.09
2022-09-04T12:50:57.685Z,101853.03
2022-09-04T12:53:52.670Z,101845.44
2022-09-04T12:56:41.401Z,101851.97
2022-09-04T12:59:35.894Z,101854.59
2022-09-04T13:02:17.593Z,101856.50
2022-09-04T13:04:58.903Z,101857.69
2022-09-04T13:07:43.312Z,101862.69
2022-09-04T13:10:24.969Z,101857.47
2022-09-04T13:13:11.723Z,101853.28
2022-09-04T13:15:54.069Z,101858.63
2022-09-04T13:18:46.464Z,101864.09
2022-09-04T13:21:30.840Z,101864.53
2022-09-04T13:24:31.785Z,101871.59
2022-09-04T13:27:26.345Z,101869.31
2022-09-04T13:30:07.686Z,101859.94
2022-09-04T13:33:16.746Z,101865.63
2022-09-04T13:36:16.461Z,101874.25
2022-09-04T13:39:25.751Z,101875.88
2022-09-04T13:42:39.775Z,101878.28
2022-09-04T13:45:15.903Z,101874.91
2022-09-04T13:47:53.622Z,101873.19
2022-09-04T13:50:29.876Z,101874.84
2022-09-04T13:53:06.233Z,101877.28
2022-09-04T13:55:39.554Z,101867.69
2022-09-04T13:58:16.917Z,101872.06
2022-09-04T14:00:50.019Z,101874.72
2022-09-04T14:03:36.597Z,101874.28
2022-09-04T14:06:10.121Z,101872.56
2022-09-04T14:08:39.919Z,101873.28
2022-09-04T14:11:30.247Z,101869.31
2022-09-04T14:14:30.915Z,101875.34
2022-09-04T14:17:00.135Z,101873.94
2022-09-04T14:19:47.954Z,101882.34
2022-09-04T14:22:33.458Z,101879.97
2022-09-04T14:25:18.129Z,101881.06
2022-09-04T14:27:58.297Z,101875.84
2022-09-04T14:30:25.791Z,101877.66
2022-09-04T14:33:19.065Z,101872.19
2022-09-04T14:36:05.447Z,101877.66
2022-09-04T14:39:13.609Z,101872.41
2022-09-04T14:42:16.278Z,101873.66
2022-09-04T14:45:06.059Z,101871.38
2022-09-04T14:47:44.242Z,101864.59
2022-09-04T14:50:14.626Z,101867.31
2022-09-04T14:52:46.153Z,101869.63
2022-09-04T14:55:18.203Z,101872.38
2022-09-04T14:57:55.273Z,101871.28
2022-09-04T15:00:24.742Z,101873.44
2022-09-04T15:03:12.093Z,101877.38
2022-09-04T15:05:51.634Z,101877.06
2022-09-04T15:08:29.193Z,101874.34
2022-09-04T15:11:02.203Z,101872.78
2022-09-04T15:13:47.501Z,101872.97
2022-09-04T15:16:23.571Z,101870.34
2022-09-04T15:19:06.742Z,101872.47
2022-09-04T15:21:50.463Z,101880.00
2022-09-04T15:24:27.024Z,101886.13
2022-09-04T15:27:05.690Z,101886.78
2022-09-04T15:29:45.634Z,101879.50
2022-09-04T15:32:20.418Z,101875.94
2022-09-04T15:34:49.106Z,101876.47
2022-09-04T15:37:25.653Z,101878.69
2022-09-04T15:40:05.840Z,101887.03
2022-09-04T15:42:41.450Z,101884.38
2022-09-04T15:45:22.937Z,101877.31
2022-09-04T15:48:44.894Z,101879.13
2022-09-04T15:51:22.448Z,101881.47
2022-09-04T15:54:21.023Z,101879.63
2022-09-04T15:57:02.299Z,101879.63
2022-09-04T15:59:52.766Z,101875.94
2022-09-04T16:02:38.881Z,101875.06
2022-09-04T16:05:21.864Z,101878.38
2022-09-04T16:08:03.836Z,101870.91
2022-09-04T16:10:53.496Z,101878.09
2022-09-04T16:13:52.757Z,101880.91
2022-09-04T16:16:33.456Z,101881.47
2022-09-04T16:19:16.392Z,101879.38
2022-09-04T16:21:55.650Z,101881.63
2022-09-04T16:24:30.946Z,101877.34
2022-09-04T16:26:59.885Z,101880.63
2022-09-04T16:29:36.537Z,101879.00
2022-09-04T16:32:09.751Z,101879.81
2022-09-04T16:34:48.654Z,101877.38
2022-09-04T16:37:25.503Z,101876.00
2022-09-04T16:40:13.776Z,101883.59
2022-09-04T16:42:50.150Z,101873.19
2022-09-04T16:45:25.390Z,101880.53
2022-09-04T16:48:00.422Z,101875.34
2022-09-04T16:50:56.032Z,101875.91
2022-09-04T16:53:40.739Z,101879.16
2022-09-04T16:56:22.714Z,101881.81
2022-09-04T16:58:56.642Z,101886.41
2022-09-04T17:01:32.340Z,101889.41
2022-09-04T17:04:26.516Z,101894.09
2022-09-04T17:07:11.070Z,101896.56
2022-09-04T17:09:51.576Z,101893.31
2022-09-04T17:12:32.868Z,101892.84
2022-09-04T17:15:17.445Z,101894.25
2022-09-04T17:17:48.511Z,101897.03
2022-09-04T17:20:36.279Z,101894.91
2022-09-04T17:28:57.900Z,101898.75
2022-09-04T17:29:08.421Z,101906.13
2022-09-04T17:29:34.376Z,101911.31
2022-09-04T17:33:00.133Z,101910.81
2022-09-04T17:40:33.224Z,101910.56
2022-09-04T17:40:53.757Z,101904.88
2022-09-04T17:41:38.039Z,101911.75
2022-09-04T17:44:33.898Z,101917.50
2022-09-04T17:47:18.258Z,101912.09
2022-09-04T17:49:51.894Z,101915.63
2022-09-04T17:52:27.092Z,101915.94
2022-09-04T17:55:03.210Z,101915.16
2022-09-04T17:57:51.918Z,101920.31
2022-09-04T18:00:24.876Z,101922.50
2022-09-04T18:03:00.119Z,101911.41
2022-09-04T18:05:36.452Z,101919.81
2022-09-04T18:08:29.712Z,101924.72
2022-09-04T18:11:12.111Z,101921.47
2022-09-04T18:13:54.411Z,101934.00
2022-09-04T18:17:11.685Z,101932.06
2022-09-04T18:19:45.740Z,101930.16
2022-09-04T18:22:33.658Z,101939.97
2022-09-04T18:25:14.379Z,101935.06
2022-09-04T18:28:06.340Z,101937.22
2022-09-04T18:37:05.518Z,101945.38
2022-09-04T18:37:24.929Z,101948.88
2022-09-04T18:37:26.039Z,101944.81
2022-09-04T18:39:58.833Z,101953.22
2022-09-04T18:47:40.284Z,101949.09
2022-09-04T18:50:24.504Z,101955.31
2022-09-04T18:50:43.938Z,101949.09
2022-09-04T18:51:28.603Z,101955.03
2022-09-04T18:54:03.527Z,101947.97
2022-09-04T18:56:36.804Z,101951.19
2022-09-04T18:59:15.755Z,101951.44
2022-09-04T19:01:52.315Z,101951.66
2022-09-04T19:04:37.739Z,101949.44
2022-09-04T19:07:11.174Z,101958.09
2022-09-04T19:10:11.782Z,101958.59
2022-09-04T19:12:58.634Z,101974.53
2022-09-04T19:15:46.095Z,101976.97
2022-09-04T19:18:26.617Z,101973.41
2022-09-04T19:21:19.357Z,101973.88
2022-09-04T19:23:53.977Z,101980.41
2022-09-04T19:26:35.136Z,101978.47
2022-09-04T19:29:15.785Z,101985.47
2022-09-04T19:31:53.664Z,101984.91
2022-09-04T19:34:31.105Z,101978.41
2022-09-04T19:37:28.103Z,101989.75
2022-09-04T19:45:53.772Z,101986.19
2022-09-04T19:46:11.956Z,101983.16
2022-09-04T19:46:26.545Z,101987.97
2022-09-04T19:50:58.878Z,101998.50
2022-09-04T19:53:33.533Z,101991.69
2022-09-04T19:55:23.658Z,101997.34
2022-09-04T19:57:45.253Z,102003.78
2022-09-04T20:00:42.966Z,102003.47
2022-09-04T20:03:29.243Z,102004.50
2022-09-04T20:06:20.513Z,102002.31
2022-09-04T20:08:58.063Z,102013.09
2022-09-04T20:11:35.907Z,102008.44
2022-09-04T20:14:19.796Z,102004.84
2022-09-04T20:17:01.095Z,102013.50
2022-09-04T20:19:39.529Z,102016.13
2022-09-04T20:22:26.593Z,102016.63
2022-09-04T20:25:26.349Z,102016.28
2022-09-04T20:28:08.810Z,102024.13
2022-09-04T20:30:40.244Z,102027.31
2022-09-04T20:33:17.965Z,102025.38
2022-09-04T20:35:52.754Z,102018.84
2022-09-04T20:38:30.426Z,102027.72
2022-09-04T20:41:11.704Z,102025.44
2022-09-04T20:43:54.797Z,102029.72
2022-09-04T20:52:43.258Z,102033.50
2022-09-04T20:52:58.062Z,102023.69
2022-09-04T20:53:09.156Z,102029.03
2022-09-04T20:55:50.092Z,102021.41
2022-09-04T21:03:12.254Z,102027.81
2022-09-04T21:03:23.237Z,102031.56
2022-09-04T21:04:51.749Z,102037.50
2022-09-04T21:07:31.162Z,102041.50
2022-09-04T21:10:13.342Z,102038.47
2022-09-04T21:12:52.605Z,102040.59
2022-09-04T21:15:51.917Z,102041.63
2022-09-04T21:18:46.476Z,102037.19
2022-09-04T21:22:17.266Z,102043.81
2022-09-04T21:25:43.992Z,102041.31
2022-09-04T21:28:51.678Z,102040.16
2022-09-04T21:31:46.761Z,102049.88
2022-09-04T21:34:43.618Z,102051.44
2022-09-04T21:37:22.718Z,102050.41
2022-09-04T21:40:52.579Z,102046.44
2022-09-04T21:43:59.106Z,102053.91
2022-09-04T21:47:00.435Z,102054.72
2022-09-04T21:50:25.778Z,102057.00
2022-09-04T21:53:23.565Z,102060.75
2022-09-04T22:01:34.596Z,102064.25
2022-09-04T22:02:43.463Z,102070.41
2022-09-04T22:02:57.615Z,102065.81
2022-09-04T22:05:43.277Z,102070.41
2022-09-04T22:13:32.066Z,102071.69
2022-09-04T22:13:46.120Z,102072.19
2022-09-04T22:14:44.052Z,102079.72
2022-09-04T22:17:41.626Z,102069.06
2022-09-04T22:20:43.500Z,102074.94
2022-09-04T22:24:11.003Z,102072.06
2022-09-04T22:27:32.439Z,102069.78
2022-09-04T22:30:22.405Z,102072.47
2022-09-04T22:33:50.757Z,102076.00
2022-09-04T22:37:18.608Z,102075.13
2022-09-04T22:40:25.984Z,102079.09
2022-09-04T22:43:12.853Z,102070.41
2022-09-04T22:46:56.415Z,102075.81
2022-09-04T22:50:05.832Z,102067.97
2022-09-04T22:53:05.215Z,102065.28
2022-09-04T22:56:15.713Z,102073.28
2022-09-04T22:59:30.597Z,102064.75
2022-09-04T23:03:07.031Z,102070.97
2022-09-04T23:07:36.746Z,102061.81
2022-09-04T23:13:54.154Z,102060.66
2022-09-04T23:13:59.326Z,102062.78
2022-09-04T23:16:49.514Z,102060.66
2022-09-04T23:26:31.498Z,102063.25
2022-09-04T23:26:36.088Z,102072.25
2022-09-04T23:27:09.057Z,102067.59
2022-09-04T23:30:02.308Z,102069.22
2022-09-04T23:33:27.486Z,102065.38
2022-09-04T23:36:10.338Z,102072.19
2022-09-04T23:39:27.708Z,102071.47
2022-09-04T23:42:27.086Z,102066.31
2022-09-04T23:45:26.088Z,102065.50
2022-09-04T23:48:28.431Z,102058.38
2022-09-04T23:51:10.864Z,102060.00
2022-09-04T23:53:54.568Z,102062.09
2022-09-04T23:56:29.830Z,102054.63
2022-09-04T23:59:31.094Z,102064.78
